KPHN/PHN METAR and TAF weather

Enter ICAO airport designator
Station Type Date Time Source
KPHN METAR 2019/10/14 05:36 UTC NOAA

KPHN 140536Z AUTO 00000KT 10SM SCT029 BKN034 OVC110 08/02 A2989 RMK AO2


Station Type Date Time Source
KPHN Decoded METAR 2019/10/14 05:36 UTC NOAA

St. Clair County International, MI, United States (KPHN) 42-55N 082-32W
Oct 14, 2019 - 01:36 AM EDT / 2019.10.14 0536 UTC
Wind: Calm:0
Visibility: 10 mile(s):0
Sky conditions: overcast
Temperature: 46 F (8 C)
Dew Point: 35 F (2 C)
Relative Humidity: 65%
Pressure (altimeter): 29.89 in. Hg (1012 hPa)
ob: KPHN 140536Z AUTO 00000KT 10SM SCT029 BKN034 OVC110 08/02 A2989 RMK AO2
cycle: 5

Station Type Date Time Source
KPHN TAF UTC NOAA

Error!

Example: see airport list